createdAt,value
2018-06-28T00:00:12.908Z,0.00
2018-06-28T00:01:12.894Z,0.00
2018-06-28T00:02:12.886Z,0.00
2018-06-28T00:03:12.873Z,0.00
2018-06-28T00:04:12.876Z,0.00
2018-06-28T00:05:12.855Z,0.00
2018-06-28T00:06:12.841Z,0.00
2018-06-28T00:07:12.832Z,0.00
2018-06-28T00:08:12.820Z,0.00
2018-06-28T00:09:12.829Z,0.00
2018-06-28T00:10:12.802Z,0.00
2018-06-28T00:11:12.787Z,0.00
2018-06-28T00:12:12.776Z,0.00
2018-06-28T00:13:12.767Z,0.00
2018-06-28T00:14:12.768Z,0.00
2018-06-28T00:15:12.744Z,0.00
2018-06-28T00:16:12.732Z,0.00
2018-06-28T00:17:12.722Z,0.00
2018-06-28T00:18:12.742Z,0.00
2018-06-28T00:19:12.713Z,0.00
2018-06-28T00:20:12.694Z,0.00
2018-06-28T00:21:12.680Z,0.00
2018-06-28T00:22:12.671Z,0.00
2018-06-28T00:23:12.657Z,0.00
2018-06-28T00:24:12.680Z,0.00
2018-06-28T00:25:12.635Z,0.00
2018-06-28T00:26:12.624Z,0.00
2018-06-28T00:27:12.615Z,0.00
2018-06-28T00:28:12.601Z,0.00
2018-06-28T00:29:12.590Z,0.00
2018-06-28T00:30:12.599Z,0.00
2018-06-28T00:31:12.568Z,0.00
2018-06-28T00:32:12.558Z,0.00
2018-06-28T00:33:12.546Z,0.00
2018-06-28T00:34:12.536Z,0.00
2018-06-28T00:35:12.541Z,0.00
2018-06-28T00:36:12.514Z,0.00
2018-06-28T00:37:12.503Z,0.00
2018-06-28T00:38:12.495Z,0.00
2018-06-28T00:39:12.483Z,0.00
2018-06-28T00:40:12.481Z,0.00
2018-06-28T00:41:12.460Z,0.00
2018-06-28T00:42:12.445Z,0.00
2018-06-28T00:43:12.436Z,0.00
2018-06-28T00:44:12.428Z,0.00
2018-06-28T00:45:12.452Z,0.00
2018-06-28T00:46:12.403Z,0.00
2018-06-28T00:47:12.395Z,0.00
2018-06-28T00:48:12.379Z,0.00
2018-06-28T00:49:12.369Z,0.00
2018-06-28T00:50:12.361Z,0.00
2018-06-28T00:51:12.366Z,0.00
2018-06-28T00:52:12.336Z,0.00
2018-06-28T00:53:12.324Z,0.00
2018-06-28T00:54:12.314Z,0.00
2018-06-28T00:55:12.302Z,0.00
2018-06-28T00:56:12.307Z,0.00
2018-06-28T00:57:12.280Z,0.00
2018-06-28T00:58:12.271Z,0.00
2018-06-28T00:59:12.259Z,0.00
2018-06-28T01:00:12.246Z,0.00
2018-06-28T01:01:12.250Z,0.00
2018-06-28T01:02:12.224Z,0.00
2018-06-28T01:03:12.216Z,0.00
2018-06-28T01:04:12.202Z,0.00
2018-06-28T01:05:12.194Z,0.00
2018-06-28T01:06:12.193Z,0.00
2018-06-28T01:07:12.172Z,0.00
2018-06-28T01:08:12.158Z,0.00
2018-06-28T01:09:12.152Z,0.00
2018-06-28T01:10:12.136Z,0.00
2018-06-28T01:11:12.141Z,0.00
2018-06-28T01:12:12.114Z,0.00
2018-06-28T01:13:12.124Z,0.00
2018-06-28T01:14:12.092Z,0.00
2018-06-28T01:15:12.080Z,0.00
2018-06-28T01:16:12.069Z,0.00
2018-06-28T01:17:12.071Z,0.00
2018-06-28T01:18:12.053Z,0.00
2018-06-28T01:19:12.036Z,0.00
2018-06-28T01:20:12.025Z,0.00
2018-06-28T01:21:12.014Z,0.00
2018-06-28T01:22:12.017Z,0.00
2018-06-28T01:23:11.993Z,0.00
2018-06-28T01:24:11.984Z,0.00
2018-06-28T01:25:11.971Z,0.00
2018-06-28T01:26:11.960Z,0.00
2018-06-28T01:27:11.963Z,0.00
2018-06-28T01:28:11.936Z,0.00
2018-06-28T01:29:11.926Z,0.00
2018-06-28T01:30:11.922Z,0.00
2018-06-28T01:31:11.903Z,0.00
2018-06-28T01:32:11.908Z,0.00
2018-06-28T01:33:11.884Z,0.00
2018-06-28T01:34:11.873Z,0.00
2018-06-28T01:35:11.865Z,0.00
2018-06-28T01:36:11.854Z,0.00
2018-06-28T01:37:11.858Z,0.00
2018-06-28T01:38:11.829Z,0.00
2018-06-28T01:39:11.818Z,0.00
2018-06-28T01:40:11.804Z,0.00
2018-06-28T01:41:11.795Z,0.00
2018-06-28T01:42:11.790Z,0.00
2018-06-28T01:43:11.792Z,0.00
2018-06-28T01:44:11.766Z,0.00
2018-06-28T01:45:11.750Z,0.00
2018-06-28T01:46:11.741Z,0.00
2018-06-28T01:47:11.730Z,0.00
2018-06-28T01:48:11.729Z,0.00
2018-06-28T01:49:11.705Z,0.00
2018-06-28T01:50:11.695Z,0.00
2018-06-28T01:51:11.685Z,0.00
2018-06-28T01:52:11.674Z,0.00
2018-06-28T01:53:11.678Z,0.00
2018-06-28T01:54:11.666Z,0.00
2018-06-28T01:55:11.640Z,0.00
2018-06-28T01:56:11.629Z,0.00
2018-06-28T01:57:11.617Z,0.00
2018-06-28T01:58:11.626Z,0.00
2018-06-28T01:59:11.598Z,0.00
2018-06-28T02:00:11.587Z,0.00
2018-06-28T02:01:11.575Z,0.00
2018-06-28T02:02:11.563Z,0.00
2018-06-28T02:03:11.553Z,0.00
2018-06-28T02:04:11.560Z,0.00
2018-06-28T02:05:11.532Z,0.00
2018-06-28T02:06:11.520Z,0.00
2018-06-28T02:07:11.509Z,0.00
2018-06-28T02:08:11.501Z,0.00
2018-06-28T02:09:11.517Z,0.00
2018-06-28T02:10:11.479Z,0.00
2018-06-28T02:11:11.468Z,0.00
2018-06-28T02:12:11.455Z,0.00
2018-06-28T02:13:11.447Z,0.00
2018-06-28T02:14:11.452Z,0.00
2018-06-28T02:15:11.424Z,0.00
2018-06-28T02:16:11.413Z,0.00
2018-06-28T02:17:11.403Z,0.00
2018-06-28T02:18:11.394Z,0.00
2018-06-28T02:19:11.381Z,0.00
2018-06-28T02:20:11.382Z,0.00
2018-06-28T02:21:11.364Z,0.00
2018-06-28T02:22:11.348Z,0.00
2018-06-28T02:23:11.338Z,0.00
2018-06-28T02:24:11.326Z,0.00
2018-06-28T02:25:11.330Z,0.00
2018-06-28T02:26:11.305Z,0.00
2018-06-28T02:27:11.306Z,0.00
2018-06-28T02:28:11.286Z,0.00
2018-06-28T02:29:11.278Z,0.00
2018-06-28T02:30:11.278Z,0.00
2018-06-28T02:31:11.252Z,0.00
2018-06-28T02:32:11.244Z,0.00
2018-06-28T02:33:11.229Z,0.00
2018-06-28T02:34:11.224Z,0.00
2018-06-28T02:35:11.228Z,0.00
2018-06-28T02:36:11.197Z,0.00
2018-06-28T02:37:11.186Z,0.00
2018-06-28T02:38:11.177Z,0.00
2018-06-28T02:39:11.164Z,0.00
2018-06-28T02:40:11.154Z,0.00
2018-06-28T02:41:11.156Z,0.00
2018-06-28T02:42:11.132Z,0.00
2018-06-28T02:43:11.122Z,0.00
2018-06-28T02:44:11.115Z,0.00
2018-06-28T02:45:11.099Z,0.00
2018-06-28T02:46:11.114Z,0.00
2018-06-28T02:47:11.077Z,0.00
2018-06-28T02:48:11.071Z,0.00
2018-06-28T02:49:11.062Z,0.00
2018-06-28T02:50:11.045Z,0.00
2018-06-28T02:51:11.034Z,0.00
2018-06-28T02:52:11.035Z,0.00
2018-06-28T02:53:11.013Z,0.00
2018-06-28T02:54:11.001Z,0.00
2018-06-28T02:55:10.994Z,0.00
2018-06-28T02:56:10.981Z,0.00
2018-06-28T02:57:10.979Z,0.00
2018-06-28T02:58:10.958Z,0.00
2018-06-28T02:59:10.947Z,0.00
2018-06-28T03:00:10.935Z,0.00
2018-06-28T03:01:10.925Z,0.00
2018-06-28T03:02:10.947Z,0.00
2018-06-28T03:03:10.902Z,0.00
2018-06-28T03:04:10.892Z,0.00
2018-06-28T03:05:10.883Z,0.00
2018-06-28T03:06:10.871Z,0.00
2018-06-28T03:07:10.861Z,0.00
2018-06-28T03:08:10.860Z,0.00
2018-06-28T03:09:10.836Z,0.00
2018-06-28T03:10:10.830Z,0.00
2018-06-28T03:11:10.825Z,0.00
2018-06-28T03:12:10.817Z,0.00
2018-06-28T03:13:10.792Z,0.00
2018-06-28T03:14:10.779Z,5.62
2018-06-28T03:15:10.772Z,5.62
2018-06-28T03:16:10.761Z,5.62
2018-06-28T03:17:10.748Z,5.62
2018-06-28T03:18:10.750Z,5.62
2018-06-28T03:19:10.725Z,5.62
2018-06-28T03:20:10.724Z,5.62
2018-06-28T03:21:10.703Z,5.62
2018-06-28T03:22:10.696Z,5.62
2018-06-28T03:23:10.694Z,5.62
2018-06-28T03:24:10.675Z,11.25
2018-06-28T03:25:10.662Z,11.25
2018-06-28T03:26:10.649Z,11.25
2018-06-28T03:27:10.644Z,11.25
2018-06-28T03:28:10.644Z,11.25
2018-06-28T03:29:10.622Z,11.25
2018-06-28T03:30:10.606Z,11.25
2018-06-28T03:31:10.618Z,16.88
2018-06-28T03:32:10.582Z,16.88
2018-06-28T03:33:10.595Z,16.88
2018-06-28T03:34:10.561Z,16.88
2018-06-28T03:35:10.552Z,16.88
2018-06-28T03:36:10.540Z,16.88
2018-06-28T03:37:10.529Z,16.88
2018-06-28T03:38:10.554Z,22.50
2018-06-28T03:39:10.506Z,22.50
2018-06-28T03:40:10.495Z,22.50
2018-06-28T03:41:10.489Z,28.12
2018-06-28T03:42:10.475Z,28.12
2018-06-28T03:43:10.464Z,33.75
2018-06-28T03:44:10.469Z,39.38
2018-06-28T03:45:10.444Z,45.00
2018-06-28T03:46:10.429Z,50.62
2018-06-28T03:47:10.418Z,56.25
2018-06-28T03:48:10.409Z,56.25
2018-06-28T03:49:10.411Z,56.25
2018-06-28T03:50:10.387Z,61.88
2018-06-28T03:51:10.377Z,56.25
2018-06-28T03:52:10.365Z,56.25
2018-06-28T03:53:10.355Z,50.62
2018-06-28T03:54:10.357Z,61.88
2018-06-28T03:55:10.329Z,67.50
2018-06-28T03:56:10.323Z,73.12
2018-06-28T03:57:10.308Z,78.75
2018-06-28T03:58:10.299Z,78.75
2018-06-28T03:59:10.299Z,78.75
2018-06-28T04:00:10.275Z,67.50
2018-06-28T04:01:10.264Z,73.12
2018-06-28T04:02:10.255Z,73.12
2018-06-28T04:03:10.244Z,78.75
2018-06-28T04:04:10.244Z,90.00
2018-06-28T04:05:10.223Z,95.62
2018-06-28T04:06:10.212Z,112.50
2018-06-28T04:07:10.201Z,129.38
2018-06-28T04:08:10.190Z,151.88
2018-06-28T04:09:10.196Z,174.38
2018-06-28T04:10:10.166Z,196.88
2018-06-28T04:11:10.156Z,219.38
2018-06-28T04:12:10.145Z,241.88
2018-06-28T04:13:10.135Z,247.50
2018-06-28T04:14:10.140Z,258.75
2018-06-28T04:15:10.113Z,264.38
2018-06-28T04:16:10.101Z,270.00
2018-06-28T04:17:10.090Z,275.62
2018-06-28T04:18:10.079Z,303.75
2018-06-28T04:19:10.069Z,331.88
2018-06-28T04:20:10.068Z,360.00
2018-06-28T04:21:10.047Z,399.38
2018-06-28T04:22:10.039Z,444.38
2018-06-28T04:23:10.027Z,511.88
2018-06-28T04:24:10.017Z,562.50
2018-06-28T04:25:10.027Z,596.25
2018-06-28T04:26:10.002Z,607.50
2018-06-28T04:27:09.982Z,590.62
2018-06-28T04:28:09.972Z,585.00
2018-06-28T04:29:09.959Z,579.38
2018-06-28T04:30:09.975Z,585.00
2018-06-28T04:31:09.939Z,579.38
2018-06-28T04:32:09.929Z,573.75
2018-06-28T04:33:09.918Z,556.88
2018-06-28T04:34:09.907Z,551.25
2018-06-28T04:35:09.894Z,545.62
2018-06-28T04:36:09.896Z,534.38
2018-06-28T04:37:09.873Z,523.12
2018-06-28T04:38:09.861Z,511.88
2018-06-28T04:39:09.855Z,500.62
2018-06-28T04:40:09.843Z,495.00
2018-06-28T04:41:09.842Z,483.75
2018-06-28T04:42:09.821Z,483.75
2018-06-28T04:43:09.808Z,489.38
2018-06-28T04:44:09.797Z,489.38
2018-06-28T04:45:09.786Z,483.75
2018-06-28T04:46:09.810Z,472.50
2018-06-28T04:47:09.765Z,472.50
2018-06-28T04:48:09.754Z,466.88
2018-06-28T04:49:09.743Z,472.50
2018-06-28T04:50:09.733Z,478.12
2018-06-28T04:51:09.721Z,483.75
2018-06-28T04:52:09.742Z,489.38
2018-06-28T04:53:09.700Z,478.12
2018-06-28T04:54:09.689Z,472.50
2018-06-28T04:55:09.681Z,472.50
2018-06-28T04:56:09.670Z,495.00
2018-06-28T04:57:09.669Z,528.75
2018-06-28T04:58:09.645Z,517.50
2018-06-28T04:59:09.634Z,500.62
2018-06-28T05:00:09.626Z,506.25
2018-06-28T05:01:09.646Z,523.12
2018-06-28T05:02:09.616Z,534.38
2018-06-28T05:03:09.594Z,540.00
2018-06-28T05:04:09.583Z,540.00
2018-06-28T05:05:09.579Z,540.00
2018-06-28T05:06:09.561Z,551.25
2018-06-28T05:07:09.624Z,585.00
2018-06-28T05:08:09.539Z,618.75
2018-06-28T05:09:09.532Z,618.75
2018-06-28T05:10:09.517Z,624.38
2018-06-28T05:11:09.506Z,669.38
2018-06-28T05:12:09.512Z,720.00
2018-06-28T05:13:09.485Z,753.75
2018-06-28T05:14:09.478Z,787.50
2018-06-28T05:15:09.468Z,770.62
2018-06-28T05:16:09.455Z,714.38
2018-06-28T05:17:09.505Z,500.62
2018-06-28T05:18:09.433Z,568.12
2018-06-28T05:19:09.422Z,506.25
2018-06-28T05:20:09.411Z,568.12
2018-06-28T05:21:09.402Z,568.12
2018-06-28T05:22:09.406Z,568.12
2018-06-28T05:23:09.379Z,596.25
2018-06-28T05:24:09.371Z,703.12
2018-06-28T05:25:09.379Z,826.88
2018-06-28T05:26:09.348Z,894.38
2018-06-28T05:27:09.337Z,945.00
2018-06-28T05:28:09.339Z,978.75
2018-06-28T05:29:09.364Z,990.00
2018-06-28T05:30:09.311Z,1006.88
2018-06-28T05:31:09.293Z,1063.12
2018-06-28T05:32:09.284Z,1113.75
2018-06-28T05:33:09.286Z,1175.62
2018-06-28T05:34:09.265Z,1496.25
2018-06-28T05:35:09.260Z,1687.50
2018-06-28T05:36:09.340Z,1473.75
2018-06-28T05:37:09.231Z,1327.50
2018-06-28T05:38:09.256Z,1288.12
2018-06-28T05:39:09.210Z,1316.25
2018-06-28T05:40:09.201Z,1147.50
2018-06-28T05:41:09.191Z,1198.12
2018-06-28T05:42:09.183Z,1125.00
2018-06-28T05:43:09.170Z,1254.38
2018-06-28T05:44:09.173Z,1473.75
2018-06-28T05:45:09.198Z,1479.38
2018-06-28T05:46:09.137Z,1440.00
2018-06-28T05:47:09.225Z,1153.12
2018-06-28T05:48:09.121Z,1192.50
2018-06-28T05:49:09.120Z,1231.88
2018-06-28T05:50:09.098Z,1113.75
2018-06-28T05:51:09.084Z,1170.00
2018-06-28T05:52:09.076Z,1209.38
2018-06-28T05:53:09.069Z,1248.75
2018-06-28T05:54:09.081Z,1299.38
2018-06-28T05:55:09.042Z,1327.50
2018-06-28T05:56:09.033Z,1310.62
2018-06-28T05:57:09.021Z,1327.50
2018-06-28T05:58:09.011Z,1327.50
2018-06-28T05:59:09.018Z,1355.62
2018-06-28T06:00:08.991Z,1440.00
2018-06-28T06:01:08.979Z,1434.38
2018-06-28T06:02:08.968Z,1389.38
2018-06-28T06:03:08.960Z,1282.50
2018-06-28T06:04:08.950Z,1203.75
2018-06-28T06:05:08.958Z,1282.50
2018-06-28T06:06:08.930Z,1305.00
2018-06-28T06:07:08.918Z,1310.62
2018-06-28T06:08:08.912Z,1372.50
2018-06-28T06:09:08.899Z,1305.00
2018-06-28T06:10:08.910Z,1316.25
2018-06-28T06:11:08.880Z,1344.38
2018-06-28T06:12:09.012Z,1333.12
2018-06-28T06:13:08.857Z,1366.88
2018-06-28T06:14:08.847Z,1400.62
2018-06-28T06:15:08.841Z,1378.12
2018-06-28T06:16:08.838Z,1423.12
2018-06-28T06:17:08.816Z,1479.38
2018-06-28T06:18:08.807Z,1428.75
2018-06-28T06:19:08.799Z,1428.75
2018-06-28T06:20:08.803Z,1389.38
2018-06-28T06:21:08.788Z,1428.75
2018-06-28T06:22:08.769Z,1524.38
2018-06-28T06:23:08.757Z,1642.50
2018-06-28T06:24:08.746Z,1620.00
2018-06-28T06:25:08.733Z,1614.38
2018-06-28T06:26:08.735Z,1546.88
2018-06-28T06:27:08.714Z,1558.12
2018-06-28T06:28:08.702Z,1535.62
2018-06-28T06:29:08.694Z,1524.38
2018-06-28T06:30:08.685Z,1648.12
2018-06-28T06:31:08.685Z,1625.62
2018-06-28T06:32:08.662Z,1597.50
2018-06-28T06:33:08.653Z,1569.38
2018-06-28T06:34:08.643Z,1636.88
2018-06-28T06:35:08.633Z,1631.25
2018-06-28T06:36:08.729Z,1597.50
2018-06-28T06:37:08.694Z,1659.38
2018-06-28T06:38:08.602Z,1726.88
2018-06-28T06:39:08.594Z,1738.12
2018-06-28T06:40:08.583Z,1800.00
2018-06-28T06:41:08.570Z,1906.88
2018-06-28T06:42:08.573Z,1935.00
2018-06-28T06:43:08.553Z,1873.12
2018-06-28T06:44:08.540Z,1760.62
2018-06-28T06:45:08.533Z,1732.50
2018-06-28T06:46:08.520Z,1800.00
2018-06-28T06:47:08.525Z,1873.12
2018-06-28T06:48:08.503Z,1878.75
2018-06-28T06:49:08.495Z,1951.88
2018-06-28T06:50:08.482Z,1974.38
2018-06-28T06:51:08.480Z,1963.12
2018-06-28T06:52:08.461Z,1918.12
2018-06-28T06:53:08.465Z,1794.38
2018-06-28T06:54:08.440Z,1811.25
2018-06-28T06:55:08.432Z,2002.50
2018-06-28T06:56:08.428Z,1974.38
2018-06-28T06:57:08.411Z,1816.88
2018-06-28T06:58:08.416Z,1951.88
2018-06-28T06:59:08.394Z,2081.25
2018-06-28T07:00:08.383Z,2047.50
2018-06-28T07:01:08.371Z,2019.38
2018-06-28T07:02:08.361Z,2013.75
2018-06-28T07:03:08.370Z,2053.12
2018-06-28T07:04:08.349Z,2115.00
2018-06-28T07:05:08.338Z,2030.62
2018-06-28T07:06:08.361Z,2019.38
2018-06-28T07:07:08.315Z,2036.25
2018-06-28T07:08:08.324Z,2148.75
2018-06-28T07:09:08.295Z,2126.25
2018-06-28T07:10:08.372Z,2081.25
2018-06-28T07:11:08.277Z,1991.25
2018-06-28T07:12:08.265Z,2210.62
2018-06-28T07:13:08.255Z,2278.12
2018-06-28T07:14:08.258Z,2289.38
2018-06-28T07:15:08.238Z,2182.50
2018-06-28T07:16:08.294Z,2244.38
2018-06-28T07:17:08.213Z,2379.38
2018-06-28T07:18:08.204Z,2463.75
2018-06-28T07:19:08.209Z,2418.75
2018-06-28T07:20:08.183Z,2491.88
2018-06-28T07:21:08.182Z,2559.38
2018-06-28T07:22:08.167Z,2520.00
2018-06-28T07:23:08.283Z,2272.50
2018-06-28T07:24:08.180Z,2266.88
2018-06-28T07:25:08.136Z,2328.75
2018-06-28T07:26:08.128Z,2328.75
2018-06-28T07:27:08.116Z,2368.12
2018-06-28T07:28:08.106Z,2401.88
2018-06-28T07:29:08.098Z,2463.75
2018-06-28T07:30:08.099Z,2424.38
2018-06-28T07:31:08.081Z,2334.38
2018-06-28T07:32:08.069Z,2261.25
2018-06-28T07:33:08.085Z,2407.50
2018-06-28T07:34:08.077Z,2373.75
2018-06-28T07:35:08.053Z,2283.75
2018-06-28T07:36:08.036Z,2356.88
2018-06-28T07:37:08.023Z,2486.25
2018-06-28T07:38:08.011Z,2520.00
2018-06-28T07:39:08.004Z,2458.12
2018-06-28T07:40:07.994Z,2340.00
2018-06-28T07:41:07.997Z,2205.00
2018-06-28T07:42:07.975Z,2278.12
2018-06-28T07:43:07.964Z,2362.50
2018-06-28T07:44:07.959Z,2385.00
2018-06-28T07:45:07.946Z,2345.62
2018-06-28T07:46:07.955Z,2227.50
2018-06-28T07:47:07.928Z,2182.50
2018-06-28T07:48:07.919Z,1929.38
2018-06-28T07:49:07.940Z,2227.50
2018-06-28T07:50:07.902Z,2340.00
2018-06-28T07:51:07.904Z,2199.38
2018-06-28T07:52:07.884Z,2548.12
2018-06-28T07:53:07.872Z,2452.50
2018-06-28T07:54:07.863Z,2553.75
2018-06-28T07:55:07.852Z,2745.00
2018-06-28T07:56:07.859Z,2773.12
2018-06-28T07:57:07.833Z,2722.50
2018-06-28T07:58:07.823Z,2874.38
2018-06-28T07:59:07.814Z,2930.62
2018-06-28T08:00:07.806Z,2851.88
2018-06-28T08:01:07.794Z,2750.62
2018-06-28T08:02:07.798Z,2835.00
2018-06-28T08:03:07.776Z,2851.88
2018-06-28T08:04:07.767Z,2632.50
2018-06-28T08:05:07.765Z,2610.00
2018-06-28T08:06:07.748Z,2694.38
2018-06-28T08:07:07.752Z,2975.62
2018-06-28T08:08:07.733Z,3060.00
2018-06-28T08:09:07.723Z,3026.25
2018-06-28T08:10:07.712Z,3285.00
2018-06-28T08:11:07.701Z,3206.25
2018-06-28T08:12:07.714Z,3133.12
2018-06-28T08:13:07.683Z,2193.75
2018-06-28T08:14:07.676Z,1749.38
2018-06-28T08:15:07.665Z,1867.50
2018-06-28T08:16:07.655Z,2688.75
2018-06-28T08:17:07.649Z,2514.38
2018-06-28T08:18:07.650Z,2497.50
2018-06-28T08:19:07.631Z,3684.38
2018-06-28T08:20:07.618Z,3858.75
2018-06-28T08:21:07.609Z,2700.00
2018-06-28T08:22:07.599Z,3003.75
2018-06-28T08:23:07.627Z,3678.75
2018-06-28T08:24:07.585Z,3060.00
2018-06-28T08:25:07.576Z,2655.00
2018-06-28T08:26:07.564Z,3526.88
2018-06-28T08:27:07.556Z,3307.50
2018-06-28T08:28:07.559Z,2840.62
2018-06-28T08:29:07.537Z,3358.12
2018-06-28T08:30:07.527Z,3121.88
2018-06-28T08:31:07.518Z,2745.00
2018-06-28T08:32:07.517Z,3116.25
2018-06-28T08:33:07.517Z,3211.88
2018-06-28T08:34:07.500Z,3307.50
2018-06-28T08:35:07.483Z,3577.50
2018-06-28T08:36:07.499Z,3335.62
2018-06-28T08:37:07.467Z,2683.12
2018-06-28T08:38:07.471Z,2368.12
2018-06-28T08:39:07.451Z,2396.25
2018-06-28T08:40:07.441Z,2745.00
2018-06-28T08:41:07.434Z,3234.38
2018-06-28T08:42:07.421Z,3386.25
2018-06-28T08:43:07.432Z,3223.12
2018-06-28T08:44:07.405Z,3330.00
2018-06-28T08:45:07.402Z,3476.25
2018-06-28T08:46:07.386Z,3380.62
2018-06-28T08:47:07.381Z,3386.25
2018-06-28T08:48:07.385Z,3521.25
2018-06-28T08:49:07.398Z,3847.50
2018-06-28T08:50:07.353Z,3780.00
2018-06-28T08:51:07.348Z,3532.50
2018-06-28T08:52:07.336Z,3656.25
2018-06-28T08:53:07.329Z,3796.88
2018-06-28T08:54:07.333Z,3577.50
2018-06-28T08:55:07.311Z,3341.25
2018-06-28T08:56:07.303Z,3780.00
2018-06-28T08:57:07.298Z,4145.62
2018-06-28T08:58:07.339Z,4404.38
2018-06-28T08:59:07.295Z,4348.12
2018-06-28T09:00:07.272Z,4128.75
2018-06-28T09:01:07.262Z,3493.12
2018-06-28T09:02:07.251Z,2413.12
2018-06-28T09:03:07.243Z,1951.88
2018-06-28T09:04:07.249Z,2002.50
2018-06-28T09:05:07.224Z,2070.00
2018-06-28T09:06:07.217Z,2070.00
2018-06-28T09:07:07.208Z,2064.38
2018-06-28T09:08:07.201Z,1940.62
2018-06-28T09:09:07.191Z,1850.62
2018-06-28T09:10:07.195Z,1918.12
2018-06-28T09:11:07.179Z,2160.00
2018-06-28T09:12:07.167Z,2385.00
2018-06-28T09:13:07.162Z,2255.62
2018-06-28T09:14:07.150Z,2458.12
2018-06-28T09:15:07.155Z,2581.88
2018-06-28T09:16:07.135Z,2812.50
2018-06-28T09:17:07.132Z,2970.00
2018-06-28T09:18:07.117Z,3178.12
2018-06-28T09:19:07.107Z,3656.25
2018-06-28T09:20:07.115Z,3830.62
2018-06-28T09:21:07.093Z,4140.00
2018-06-28T09:22:07.085Z,2019.38
2018-06-28T09:23:07.189Z,905.62
2018-06-28T09:24:07.068Z,821.25
2018-06-28T09:25:07.074Z,753.75
2018-06-28T09:26:07.049Z,703.12
2018-06-28T09:27:07.046Z,759.38
2018-06-28T09:28:07.035Z,787.50
2018-06-28T09:29:07.029Z,720.00
2018-06-28T09:30:07.018Z,675.00
2018-06-28T09:31:07.031Z,691.88
2018-06-28T09:32:07.006Z,736.88
2018-06-28T09:33:06.987Z,3926.25
2018-06-28T09:34:06.978Z,3937.50
2018-06-28T09:35:06.969Z,3622.50
2018-06-28T09:36:06.961Z,753.75
2018-06-28T09:37:06.966Z,703.12
2018-06-28T09:38:06.943Z,708.75
2018-06-28T09:39:06.933Z,607.50
2018-06-28T09:40:06.924Z,579.38
2018-06-28T09:41:06.916Z,613.12
2018-06-28T09:42:06.919Z,3735.00
2018-06-28T09:43:06.896Z,3796.88
2018-06-28T09:44:06.886Z,2210.62
2018-06-28T09:45:06.875Z,731.25
2018-06-28T09:46:06.866Z,708.75
2018-06-28T09:47:06.879Z,787.50
2018-06-28T09:48:06.847Z,2531.25
2018-06-28T09:49:06.843Z,3982.50
2018-06-28T09:50:06.836Z,3892.50
2018-06-28T09:51:06.819Z,3796.88
2018-06-28T09:52:06.822Z,3476.25
2018-06-28T09:53:06.804Z,2795.62
2018-06-28T09:54:06.792Z,3622.50
2018-06-28T09:55:06.784Z,2705.62
2018-06-28T09:56:06.774Z,1158.75
2018-06-28T09:57:06.779Z,3965.62
2018-06-28T09:58:06.755Z,4033.12
2018-06-28T09:59:06.747Z,4083.75
2018-06-28T10:00:06.738Z,3870.00
2018-06-28T10:01:06.729Z,3785.62
2018-06-28T10:02:06.723Z,3723.75
2018-06-28T10:03:06.725Z,3701.25
2018-06-28T10:04:06.708Z,2109.38
2018-06-28T10:05:06.696Z,3436.88
2018-06-28T10:06:06.695Z,3712.50
2018-06-28T10:07:06.683Z,3881.25
2018-06-28T10:08:06.689Z,3982.50
2018-06-28T10:09:06.675Z,4297.50
2018-06-28T10:10:06.653Z,4246.88
2018-06-28T10:11:06.649Z,4106.25
2018-06-28T10:12:06.636Z,3948.75
2018-06-28T10:13:06.642Z,3341.25
2018-06-28T10:14:06.617Z,4128.75
2018-06-28T10:15:06.615Z,4033.12
2018-06-28T10:16:06.602Z,4083.75
2018-06-28T10:17:06.598Z,4179.38
2018-06-28T10:18:06.609Z,3999.38
2018-06-28T10:19:06.577Z,3886.88
2018-06-28T10:20:06.569Z,3971.25
2018-06-28T10:21:06.571Z,4089.38
2018-06-28T10:22:06.562Z,4336.88
2018-06-28T10:23:06.573Z,4072.50
2018-06-28T10:24:06.536Z,3633.75
2018-06-28T10:25:06.556Z,3650.62
2018-06-28T10:26:06.522Z,4100.62
2018-06-28T10:27:06.512Z,4207.50
2018-06-28T10:28:06.506Z,3813.75
2018-06-28T10:29:06.513Z,3560.62
2018-06-28T10:30:06.485Z,3138.75
2018-06-28T10:31:06.478Z,3504.38
2018-06-28T10:32:06.470Z,3639.38
2018-06-28T10:33:06.474Z,3481.88
2018-06-28T10:34:08.202Z,3301.88
2018-06-28T10:35:06.455Z,3015.00
2018-06-28T10:36:06.464Z,3037.50
2018-06-28T10:37:06.429Z,3150.00
2018-06-28T10:38:06.421Z,3453.75
2018-06-28T10:39:06.470Z,3673.12
2018-06-28T10:40:06.405Z,3555.00
2018-06-28T10:41:06.395Z,3813.75
2018-06-28T10:42:06.388Z,3436.88
2018-06-28T10:43:06.379Z,3352.50
2018-06-28T10:44:06.370Z,3718.12
2018-06-28T10:45:06.376Z,3830.62
2018-06-28T10:46:06.354Z,3358.12
2018-06-28T10:47:06.348Z,3448.12
2018-06-28T10:48:06.359Z,3780.00
2018-06-28T10:49:06.350Z,3391.88
2018-06-28T10:50:06.333Z,3296.25
2018-06-28T10:51:06.312Z,3144.38
2018-06-28T10:52:06.305Z,3228.75
2018-06-28T10:53:06.297Z,3099.38
2018-06-28T10:54:06.346Z,3026.25
2018-06-28T10:55:06.293Z,3082.50
2018-06-28T10:56:06.271Z,3082.50
2018-06-28T10:57:06.263Z,3166.88
2018-06-28T10:58:06.277Z,3318.75
2018-06-28T10:59:06.246Z,3285.00
2018-06-28T11:00:06.281Z,3414.38
2018-06-28T11:01:06.236Z,3470.62
2018-06-28T11:02:06.255Z,3588.75
2018-06-28T11:03:06.275Z,3352.50
2018-06-28T11:04:06.204Z,3324.38
2018-06-28T11:05:06.218Z,3504.38
2018-06-28T11:06:06.210Z,3307.50
2018-06-28T11:07:06.208Z,3363.75
2018-06-28T11:08:06.173Z,3645.00
2018-06-28T11:09:06.167Z,3836.25
2018-06-28T11:10:06.154Z,3864.38
2018-06-28T11:11:06.156Z,3830.62
2018-06-28T11:12:06.135Z,3954.38
2018-06-28T11:13:06.128Z,3943.12
2018-06-28T11:14:06.121Z,3639.38
2018-06-28T11:15:06.110Z,3616.88
2018-06-28T11:16:06.120Z,3892.50
2018-06-28T11:17:06.093Z,4038.75
2018-06-28T11:18:06.087Z,3926.25
2018-06-28T11:19:06.079Z,3555.00
2018-06-28T11:20:06.081Z,3408.75
2018-06-28T11:21:06.061Z,3808.12
2018-06-28T11:22:06.069Z,4089.38
2018-06-28T11:23:06.046Z,3948.75
2018-06-28T11:24:06.036Z,3645.00
2018-06-28T11:25:06.031Z,3673.12
2018-06-28T11:26:06.022Z,3723.75
2018-06-28T11:27:06.031Z,607.50
2018-06-28T11:28:06.005Z,3825.00
2018-06-28T11:29:05.998Z,3729.38
2018-06-28T11:30:05.990Z,3847.50
2018-06-28T11:31:06.005Z,2356.88
2018-06-28T11:32:06.012Z,1023.75
2018-06-28T11:33:05.964Z,1440.00
2018-06-28T11:34:05.995Z,3172.50
2018-06-28T11:35:05.953Z,3076.88
2018-06-28T11:36:05.940Z,3425.62
2018-06-28T11:37:05.932Z,3960.00
2018-06-28T11:38:05.932Z,3763.12
2018-06-28T11:39:05.914Z,3656.25
2018-06-28T11:40:05.906Z,3341.25
2018-06-28T11:41:05.895Z,2126.25
2018-06-28T11:42:05.886Z,973.12
2018-06-28T11:43:05.892Z,646.88
2018-06-28T11:44:05.869Z,500.62
2018-06-28T11:45:05.862Z,466.88
2018-06-28T11:46:05.854Z,455.62
2018-06-28T11:47:05.846Z,461.25
2018-06-28T11:48:05.853Z,466.88
2018-06-28T11:49:05.828Z,478.12
2018-06-28T11:50:05.817Z,489.38
2018-06-28T11:51:05.807Z,495.00
2018-06-28T11:52:05.798Z,478.12
2018-06-28T11:53:05.792Z,455.62
2018-06-28T11:54:05.805Z,421.88
2018-06-28T11:55:05.770Z,393.75
2018-06-28T11:56:05.762Z,382.50
2018-06-28T11:57:05.758Z,365.62
2018-06-28T11:58:05.745Z,371.25
2018-06-28T11:59:05.745Z,371.25
2018-06-28T12:00:05.723Z,365.62
2018-06-28T12:01:05.774Z,365.62
2018-06-28T12:02:05.717Z,365.62
2018-06-28T12:03:05.693Z,360.00
2018-06-28T12:04:05.698Z,354.38
2018-06-28T12:05:05.675Z,348.75
2018-06-28T12:06:05.666Z,348.75
2018-06-28T12:07:05.658Z,348.75
2018-06-28T12:08:05.644Z,360.00
2018-06-28T12:09:05.654Z,360.00
2018-06-28T12:10:05.627Z,371.25
2018-06-28T12:11:05.616Z,371.25
2018-06-28T12:12:05.606Z,376.88
2018-06-28T12:13:05.595Z,376.88
2018-06-28T12:14:05.582Z,376.88
2018-06-28T12:15:05.589Z,376.88
2018-06-28T12:16:05.565Z,382.50
2018-06-28T12:17:05.554Z,376.88
2018-06-28T12:18:05.544Z,376.88
2018-06-28T12:19:05.532Z,376.88
2018-06-28T12:20:05.544Z,382.50
2018-06-28T12:21:05.514Z,388.12
2018-06-28T12:22:05.504Z,393.75
2018-06-28T12:23:05.494Z,399.38
2018-06-28T12:24:05.484Z,393.75
2018-06-28T12:25:05.473Z,399.38
2018-06-28T12:26:05.481Z,410.62
2018-06-28T12:27:05.453Z,427.50
2018-06-28T12:28:05.441Z,427.50
2018-06-28T12:29:05.433Z,416.25
2018-06-28T12:30:05.422Z,410.62
2018-06-28T12:31:05.507Z,410.62